Time;durP1;ratioP1;P1;durP2;ratioP2;P2;SDS_P1;SDS_P2;PMS_P1;PMS_P2;Temp;Humidity;BMP_temperature;BMP_pressure;BME280_temperature;BME280_humidity;BME280_pressure;Samples;Min_cycle;Max_cycle;Signal;HPM_P1;HPM_P2
2022/09/05 00:01:23;;;;;;;1.00;1.00;;;19.40;72.70;19.60;96973.00;;;;5101486;28;20185;-84
2022/09/05 00:04:06;;;;;;;1.23;1.07;;;19.30;72.30;19.60;96963.00;;;;5098102;28;20175;-84
2022/09/05 00:06:41;;;;;;;1.10;1.10;;;19.30;72.60;19.70;96963.00;;;;5095076;28;20211;-83
2022/09/05 00:09:18;;;;;;;1.43;1.00;;;19.30;72.60;19.70;96965.00;;;;5095388;28;20738;-84
2022/09/05 00:11:54;;;;;;;1.63;1.53;;;19.30;72.80;19.70;96957.00;;;;5096191;28;20179;-84
2022/09/05 00:14:42;;;;;;;1.90;1.20;;;19.30;72.90;19.70;96959.00;;;;5095828;28;20238;-83
2022/09/05 00:17:24;;;;;;;1.13;1.00;;;19.30;73.20;19.70;96952.00;;;;5097321;28;20242;-84
2022/09/05 00:20:07;;;;;;;0.97;0.97;;;19.30;73.00;19.70;96948.00;;;;5094996;28;20215;-84
2022/09/05 00:22:51;;;;;;;1.33;1.23;;;19.30;73.00;19.70;96950.00;;;;5096388;28;20526;-84
2022/09/05 00:25:55;;;;;;;1.10;1.10;;;19.30;73.20;19.70;96953.00;;;;5095553;28;20211;-83
2022/09/05 00:28:36;;;;;;;1.07;1.00;;;19.30;73.20;19.70;96948.00;;;;5083436;28;20245;-84
2022/09/05 00:31:22;;;;;;;1.07;1.00;;;19.30;73.30;19.70;96949.00;;;;5094952;28;20254;-84
2022/09/05 00:34:03;;;;;;;0.97;0.97;;;19.30;73.20;19.70;96955.00;;;;5094696;28;20238;-84
2022/09/05 00:36:44;;;;;;;1.30;1.17;;;19.30;72.90;19.60;96954.00;;;;5095048;28;20219;-83
2022/09/05 00:39:18;;;;;;;1.53;1.00;;;19.30;72.70;19.60;96950.00;;;;5095294;28;20270;-83
2022/09/05 00:41:54;;;;;;;1.57;1.13;;;19.20;72.40;19.60;96951.00;;;;5094659;28;20180;-84
2022/09/05 00:44:29;;;;;;;1.70;1.00;;;19.20;72.20;19.50;96954.00;;;;5094786;28;20648;-84
2022/09/05 00:47:06;;;;;;;1.87;0.97;;;19.20;72.20;19.50;96955.00;;;;5096226;28;20230;-84
2022/09/05 00:49:42;;;;;;;1.90;1.40;;;19.20;72.50;19.50;96948.00;;;;5094957;28;20248;-83
2022/09/05 00:52:21;;;;;;;1.13;1.13;;;19.10;72.60;19.40;96954.00;;;;5094072;28;20222;-83
2022/09/05 00:55:11;;;;;;;1.20;1.10;;;19.10;72.90;19.40;96959.00;;;;5094923;28;20632;-83
2022/09/05 00:58:10;;;;;;;1.20;1.10;;;19.10;72.90;19.40;96951.00;;;;5094862;28;20302;-83
2022/09/05 01:00:52;;;;;;;1.23;1.17;;;19.10;72.80;19.40;96958.00;;;;5094053;28;20217;-83
2022/09/05 01:04:19;;;;;;;1.67;1.30;;;19.00;72.50;19.30;96950.00;;;;5094933;28;20176;-83
2022/09/05 01:07:10;;;;;;;1.10;1.00;;;19.00;72.40;19.20;96952.00;;;;5056607;28;20200;-83
2022/09/05 01:09:56;;;;;;;1.30;1.10;;;19.00;72.20;19.20;96958.00;;;;5094615;28;20254;-83
2022/09/05 01:12:46;;;;;;;1.13;1.03;;;18.90;72.00;19.20;96959.00;;;;5093406;28;20191;-83
2022/09/05 01:15:28;;;;;;;2.60;1.20;;;18.90;72.20;19.10;96950.00;;;;5087980;28;20207;-83
2022/09/05 01:18:32;;;;;;;1.20;1.17;;;18.80;72.10;19.10;96954.00;;;;5094080;28;20191;-83
2022/09/05 01:21:47;;;;;;;0.93;0.93;;;18.80;72.30;19.00;96948.00;;;;5092360;28;20195;-83
2022/09/05 01:24:53;;;;;;;1.17;1.10;;;18.80;72.30;19.00;96955.00;;;;5092651;28;20613;-83
2022/09/05 01:27:51;;;;;;;1.00;1.00;;;18.70;72.20;19.00;96947.00;;;;5090816;28;20195;-83
2022/09/05 01:30:23;;;;;;;1.40;1.30;;;18.70;72.50;18.90;96946.00;;;;5092841;28;20227;-83
2022/09/05 01:33:08;;;;;;;1.73;1.40;;;18.70;72.60;19.00;96948.00;;;;5091879;28;20606;-84
2022/09/05 01:36:16;;;;;;;1.80;1.07;;;18.70;73.10;18.90;96946.00;;;;5092673;28;20290;-83
2022/09/05 01:38:56;;;;;;;1.10;1.00;;;18.60;73.30;18.90;96944.00;;;;5093398;28;20215;-83
2022/09/05 01:41:33;;;;;;;1.40;1.30;;;18.60;73.10;18.90;96943.00;;;;5092809;28;20218;-83
2022/09/05 01:44:29;;;;;;;1.23;1.13;;;18.60;73.10;18.90;96952.00;;;;5091517;28;20291;-83
2022/09/05 01:47:16;;;;;;;1.57;1.47;;;18.60;73.10;18.80;96947.00;;;;5073011;28;20219;-83
2022/09/05 01:49:58;;;;;;;1.30;1.20;;;18.50;72.80;18.80;96958.00;;;;5072930;28;20302;-83
2022/09/05 01:52:45;;;;;;;1.10;1.10;;;18.50;72.90;18.70;96960.00;;;;5072396;28;20186;-82
2022/09/05 01:55:29;;;;;;;1.40;1.30;;;18.50;72.80;18.70;96969.00;;;;5071190;28;20191;-83
2022/09/05 01:58:12;;;;;;;1.77;1.30;;;18.50;72.90;18.70;96957.00;;;;5072818;28;20204;-83
2022/09/05 02:00:50;;;;;;;1.20;1.00;;;18.40;72.80;18.60;96966.00;;;;5071679;28;20220;-83
2022/09/05 02:03:33;;;;;;;1.37;1.27;;;18.40;72.80;18.60;96968.00;;;;5072168;28;20283;-83
2022/09/05 02:06:37;;;;;;;1.10;1.10;;;18.40;73.20;18.60;96960.00;;;;5071777;28;20191;-83
2022/09/05 02:09:58;;;;;;;1.50;1.40;;;18.30;73.50;18.60;96955.00;;;;5072139;28;20247;-83
2022/09/05 02:12:33;;;;;;;1.40;1.30;;;18.30;74.10;18.60;96958.00;;;;5068900;28;20200;-83
2022/09/05 02:15:08;;;;;;;2.00;1.90;;;18.30;73.90;18.60;96957.00;;;;5070996;28;20205;-83
2022/09/05 02:17:51;;;;;;;1.60;1.50;;;18.30;74.10;18.50;96962.00;;;;5071993;28;20715;-83
2022/09/05 02:20:26;;;;;;;1.83;1.73;;;18.30;74.50;18.60;96960.00;;;;5070985;28;20302;-83
2022/09/05 02:23:08;;;;;;;1.83;1.30;;;18.30;74.40;18.50;96959.00;;;;5071941;28;20207;-83
2022/09/05 02:25:47;;;;;;;1.73;1.30;;;18.30;74.70;18.60;96967.00;;;;5070971;28;20208;-83
2022/09/05 02:28:24;;;;;;;1.40;1.30;;;18.30;74.40;18.60;96959.00;;;;5072264;28;20207;-83
2022/09/05 02:31:03;;;;;;;1.60;1.50;;;18.30;74.10;18.60;96965.00;;;;5070236;28;20246;-83
2022/09/05 02:33:38;;;;;;;1.47;1.37;;;18.30;73.90;18.50;96971.00;;;;5071854;28;20184;-83
2022/09/05 02:36:27;;;;;;;2.00;1.40;;;18.20;73.70;18.50;96966.00;;;;5071072;28;20295;-83
2022/09/05 02:39:00;;;;;;;1.33;1.23;;;18.20;73.60;18.50;96952.00;;;;5073164;28;20299;-83
2022/09/05 02:41:35;;;;;;;1.60;1.50;;;18.20;73.50;18.50;96946.00;;;;5090128;28;20271;-83
2022/09/05 02:44:09;;;;;;;1.17;1.17;;;18.20;73.50;18.40;96941.00;;;;5092920;28;20194;-83
2022/09/05 02:46:50;;;;;;;1.37;1.30;;;18.20;73.50;18.40;96949.00;;;;5094958;28;20218;-83
2022/09/05 02:49:32;;;;;;;1.50;1.40;;;18.20;73.70;18.40;96952.00;;;;5094457;28;20715;-83
2022/09/05 02:52:05;;;;;;;1.50;1.40;;;18.10;73.70;18.40;96953.00;;;;5095387;28;20207;-83
2022/09/05 02:54:37;;;;;;;1.53;1.43;;;18.10;73.70;18.40;96962.00;;;;5096780;28;20233;-83
2022/09/05 02:57:31;;;;;;;1.83;1.37;;;18.10;73.60;18.30;96955.00;;;;5100182;28;20245;-83
2022/09/05 03:00:12;;;;;;;1.87;1.40;;;18.10;73.80;18.30;96954.00;;;;5096018;28;20720;-83
2022/09/05 03:03:12;;;;;;;1.40;1.30;;;18.10;73.80;18.30;96949.00;;;;5094600;28;20199;-83
2022/09/05 03:05:55;;;;;;;1.10;1.07;;;18.00;73.60;18.30;96950.00;;;;5093738;28;20285;-84
2022/09/05 03:08:52;;;;;;;1.90;1.80;;;18.00;73.50;18.20;96941.00;;;;5094121;28;20206;-83
2022/09/05 03:12:36;;;;;;;1.33;1.30;;;18.00;74.30;18.20;96943.00;;;;5094136;28;20668;-83
2022/09/05 03:15:59;;;;;;;1.43;1.30;;;18.00;73.60;18.10;96953.00;;;;5010942;28;20216;-83
2022/09/05 03:19:06;;;;;;;1.20;1.10;;;17.90;73.50;18.10;96954.00;;;;5011052;28;20209;-83
2022/09/05 03:22:31;;;;;;;1.43;1.33;;;17.90;74.30;18.10;96960.00;;;;5094458;28;20199;-83
2022/09/05 03:26:08;;;;;;;1.63;1.53;;;17.90;73.80;18.00;96957.00;;;;5070343;28;20191;-83
2022/09/05 03:29:26;;;;;;;1.40;1.40;;;17.80;73.60;18.00;96966.00;;;;5049957;28;20236;-83
2022/09/05 03:32:36;;;;;;;1.33;1.23;;;17.80;73.50;18.00;96966.00;;;;5028607;28;20631;-83
2022/09/05 03:35:55;;;;;;;5.97;1.23;;;17.80;73.60;18.00;96965.00;;;;5071644;28;20597;-83
2022/09/05 03:39:32;;;;;;;2.03;1.30;;;17.70;73.50;17.90;96965.00;;;;5072067;28;20658;-83
2022/09/05 03:42:38;;;;;;;1.63;1.47;;;17.70;73.70;17.90;96963.00;;;;5072133;28;20223;-83
2022/09/05 03:45:49;;;;;;;2.00;1.73;;;17.70;73.50;17.90;96960.00;;;;5082487;28;20201;-83
2022/09/05 03:48:56;;;;;;;1.60;1.50;;;17.70;73.90;17.80;96965.00;;;;5093513;28;20237;-83
2022/09/05 03:51:36;;;;;;;1.50;1.40;;;17.60;73.80;17.80;96964.00;;;;5093041;28;20199;-83
2022/09/05 03:54:44;;;;;;;2.17;1.50;;;17.60;73.80;17.80;96959.00;;;;5091698;28;20190;-82
2022/09/05 03:57:34;;;;;;;1.50;1.40;;;17.60;74.10;17.80;96963.00;;;;5089614;28;20268;-83
2022/09/05 04:00:20;;;;;;;1.97;1.77;;;17.60;74.20;17.80;96965.00;;;;5113599;22;20200;-84
2022/09/05 04:03:07;;;;;;;1.40;1.30;;;17.50;74.10;17.80;96962.00;;;;5099814;28;20203;-82
2022/09/05 04:05:40;;;;;;;1.87;1.77;;;17.50;74.00;17.80;96963.00;;;;5103976;28;20192;-82
2022/09/05 04:08:14;;;;;;;1.87;1.77;;;17.50;74.70;17.80;96971.00;;;;5115549;28;20186;-83
2022/09/05 04:10:58;;;;;;;2.13;1.87;;;17.50;74.00;17.80;96968.00;;;;5114558;28;20253;-82
2022/09/05 04:13:34;;;;;;;1.50;1.40;;;17.50;74.20;17.70;96963.00;;;;5114674;28;20244;-82
2022/09/05 04:16:11;;;;;;;2.27;2.10;;;17.50;74.80;17.70;96963.00;;;;5114789;28;20286;-82
2022/09/05 04:18:44;;;;;;;1.67;1.57;;;17.50;74.20;17.70;96960.00;;;;5101533;28;20412;-82
2022/09/05 04:21:18;;;;;;;1.90;1.80;;;17.50;74.30;17.80;96959.00;;;;5093637;28;20298;-82
2022/09/05 04:24:09;;;;;;;2.20;2.10;;;17.40;74.30;17.70;96959.00;;;;5094422;28;20270;-82
2022/09/05 04:27:15;;;;;;;2.53;2.07;;;17.40;74.40;17.80;96958.00;;;;5093630;28;20230;-82
2022/09/05 04:29:58;;;;;;;2.13;1.83;;;17.50;74.50;17.70;96961.00;;;;5088173;28;20746;-82
2022/09/05 04:32:44;;;;;;;1.73;1.63;;;17.40;74.20;17.70;96966.00;;;;5083343;28;20201;-82
2022/09/05 04:35:30;;;;;;;1.80;1.70;;;17.40;74.10;17.70;96961.00;;;;5077156;28;20292;-83
2022/09/05 04:38:08;;;;;;;2.17;1.67;;;17.40;74.20;17.70;96963.00;;;;5073477;28;20294;-83
2022/09/05 04:40:48;;;;;;;2.10;1.90;;;17.40;74.00;17.70;96957.00;;;;5072635;28;20302;-83
2022/09/05 04:43:32;;;;;;;2.07;1.97;;;17.40;74.20;17.60;96961.00;;;;5072338;28;20279;-82
2022/09/05 04:46:13;;;;;;;1.90;1.80;;;17.40;74.30;17.60;96965.00;;;;5070554;28;20282;-82
2022/09/05 04:48:50;;;;;;;2.17;1.97;;;17.40;74.30;17.60;96969.00;;;;5072200;28;20185;-82
2022/09/05 04:52:22;;;;;;;2.00;1.90;;;17.30;74.30;17.60;96969.00;;;;5074533;28;20319;-82
2022/09/05 04:54:55;;;;;;;2.17;1.90;;;17.30;74.60;17.60;96966.00;;;;5072842;28;20282;-83
2022/09/05 04:57:33;;;;;;;1.73;1.63;;;17.30;74.40;17.60;96976.00;;;;5074365;28;20239;-83
2022/09/05 05:00:06;;;;;;;2.97;2.03;;;17.30;74.50;17.60;96980.00;;;;5073169;28;20216;-83
2022/09/05 05:02:39;;;;;;;2.00;1.90;;;17.30;74.60;17.60;96984.00;;;;5074649;28;20215;-82
2022/09/05 05:05:17;;;;;;;2.23;2.13;;;17.30;74.80;17.60;96992.00;;;;5081318;28;20291;-82
2022/09/05 05:07:54;;;;;;;2.27;2.10;;;17.30;75.00;17.60;96992.00;;;;5094066;28;20285;-82
2022/09/05 05:10:33;;;;;;;2.03;1.80;;;17.30;75.10;17.60;96989.00;;;;5093274;28;20218;-82
2022/09/05 05:13:10;;;;;;;3.13;2.20;;;17.30;75.30;17.60;96990.00;;;;5094387;28;20215;-82
2022/09/05 05:15:51;;;;;;;3.37;2.10;;;17.30;75.20;17.60;96993.00;;;;5093019;28;20222;-83
2022/09/05 05:18:26;;;;;;;2.10;2.00;;;17.30;75.50;17.60;97000.00;;;;5093780;28;20227;-83
2022/09/05 05:21:02;;;;;;;3.20;2.40;;;17.30;75.60;17.70;97003.00;;;;5092314;28;20246;-83
2022/09/05 05:23:36;;;;;;;2.37;2.23;;;17.30;75.80;17.70;97008.00;;;;5091856;28;20731;-84
2022/09/05 05:26:09;;;;;;;2.73;2.53;;;17.30;75.80;17.80;97010.00;;;;5092261;28;20210;-85
2022/09/05 05:28:54;;;;;;;2.37;2.17;;;17.40;75.90;17.80;97010.00;;;;5093286;28;20184;-84
2022/09/05 05:31:30;;;;;;;2.10;2.00;;;17.40;76.10;17.90;97007.00;;;;5092191;28;20223;-84
2022/09/05 05:34:02;;;;;;;2.40;2.20;;;17.40;76.10;17.90;97012.00;;;;5089334;28;20263;-83
2022/09/05 05:36:37;;;;;;;2.40;2.20;;;17.40;76.10;17.90;97027.00;;;;5071957;28;20204;-84
2022/09/05 05:39:10;;;;;;;2.80;2.50;;;17.50;76.40;18.00;97020.00;;;;5072563;28;20242;-84
2022/09/05 05:41:44;;;;;;;2.63;2.10;;;17.50;76.30;18.00;97025.00;;;;5073081;28;20648;-84
2022/09/05 05:44:15;;;;;;;2.77;2.57;;;17.50;76.50;18.00;97034.00;;;;5072475;28;20215;-85
2022/09/05 05:46:56;;;;;;;2.53;2.33;;;17.50;76.60;18.10;97023.00;;;;5071407;28;20216;-84
2022/09/05 05:49:44;;;;;;;2.60;2.40;;;17.60;76.70;18.10;97031.00;;;;5070654;28;20180;-84
2022/09/05 05:52:43;;;;;;;2.87;2.67;;;17.60;76.70;18.20;97021.00;;;;5072667;28;20637;-84
2022/09/05 05:55:37;;;;;;;2.63;2.30;;;17.70;77.10;18.20;97024.00;;;;5070539;28;20284;-84
2022/09/05 05:58:28;;;;;;;2.43;2.33;;;17.70;77.30;18.20;97025.00;;;;5043987;28;20234;-84
2022/09/05 06:02:01;;;;;;;2.80;2.60;;;17.70;77.50;18.30;97022.00;;;;5072370;28;20625;-84
2022/09/05 06:05:33;;;;;;;3.00;2.80;;;17.80;78.00;18.40;97022.00;;;;5079769;28;20737;-84
2022/09/05 06:08:26;;;;;;;2.47;2.27;;;17.90;78.00;18.40;97033.00;;;;5069080;28;20687;-84
2022/09/05 06:11:22;;;;;;;2.80;2.60;;;17.90;77.90;18.50;97030.00;;;;5078420;28;20291;-84
2022/09/05 06:14:59;;;;;;;3.13;2.93;;;18.00;78.60;18.50;97042.00;;;;5065417;28;20684;-84
2022/09/05 06:18:31;;;;;;;3.00;2.80;;;18.00;78.90;18.60;97043.00;;;;5070155;28;20588;-84
2022/09/05 06:21:54;;;;;;;3.17;2.93;;;18.10;79.30;18.70;97041.00;;;;5055662;28;20665;-85
2022/09/05 06:25:27;;;;;;;3.33;3.13;;;18.20;79.50;18.80;97030.00;;;;5041808;28;20683;-85
2022/09/05 06:28:11;;;;;;;3.67;3.13;;;18.30;80.10;18.90;97030.00;;;;5091734;28;20281;-84
2022/09/05 06:30:48;;;;;;;3.50;3.20;;;18.40;79.70;19.00;97037.00;;;;5091499;28;20305;-84
2022/09/05 06:33:39;;;;;;;3.37;3.07;;;18.40;79.70;19.10;97042.00;;;;5091751;28;20636;-84
2022/09/05 06:36:25;;;;;;;3.40;3.10;;;18.50;80.10;19.20;97044.00;;;;5091338;28;20676;-83
2022/09/05 06:39:08;;;;;;;3.13;2.80;;;18.60;80.30;19.30;97039.00;;;;5077585;28;20265;-83
2022/09/05 06:41:54;;;;;;;3.13;2.87;;;18.70;80.50;19.40;97043.00;;;;5071151;28;20216;-83
2022/09/05 06:44:58;;;;;;;3.53;3.03;;;18.80;80.70;19.50;97041.00;;;;5071262;28;20208;-84
2022/09/05 06:47:27;;;;;;;3.03;2.83;;;18.90;81.40;19.60;97037.00;;;;5071421;28;20227;-84
2022/09/05 06:50:14;;;;;;;3.20;2.90;;;19.00;80.70;19.70;97044.00;;;;5063283;28;20196;-84
2022/09/05 06:53:26;;;;;;;3.43;2.53;;;19.10;81.50;19.80;97041.00;;;;5070858;28;20732;-83
2022/09/05 06:56:14;;;;;;;2.87;2.67;;;19.20;81.70;19.90;97042.00;;;;5069703;28;20696;-84
2022/09/05 06:59:41;;;;;;;2.80;2.60;;;19.30;81.20;20.10;97040.00;;;;5070172;28;20307;-83
2022/09/05 07:02:21;;;;;;;2.73;2.53;;;19.40;81.70;20.20;97047.00;;;;5070080;28;20246;-84
2022/09/05 07:05:08;;;;;;;2.40;2.20;;;19.50;81.20;20.30;97051.00;;;;5069907;28;20282;-84
2022/09/05 07:07:43;;;;;;;2.40;2.23;;;19.60;81.40;20.40;97055.00;;;;5070898;28;20206;-84
2022/09/05 07:10:22;;;;;;;2.70;2.50;;;19.70;81.10;20.50;97054.00;;;;5080839;28;20238;-85
2022/09/05 07:12:57;;;;;;;3.47;2.80;;;19.80;81.10;20.60;97048.00;;;;5097752;28;20619;-85
2022/09/05 07:15:40;;;;;;;2.97;2.77;;;19.90;80.90;20.70;97041.00;;;;5085438;28;20203;-85
2022/09/05 07:18:22;;;;;;;2.50;2.27;;;20.00;81.10;20.80;97042.00;;;;5074472;28;20318;-84
2022/09/05 07:20:56;;;;;;;2.30;2.20;;;20.20;81.00;21.00;97053.00;;;;5100007;28;20251;-84
2022/09/05 07:23:48;;;;;;;3.20;2.90;;;20.20;80.80;21.10;97054.00;;;;5108301;28;20262;-84
2022/09/05 07:26:19;;;;;;;2.40;2.30;;;20.40;81.90;21.30;97053.00;;;;5076950;28;20276;-84
2022/09/05 07:28:54;;;;;;;2.40;2.20;;;20.50;80.90;21.50;97047.00;;;;5097171;28;20199;-85
2022/09/05 07:31:26;;;;;;;2.53;2.33;;;20.60;80.90;21.60;97052.00;;;;5097485;28;20596;-84
2022/09/05 07:34:11;;;;;;;2.73;2.40;;;20.80;80.70;21.70;97061.00;;;;5103902;28;20201;-84
2022/09/05 07:36:45;;;;;;;2.53;2.33;;;20.90;80.70;21.90;97069.00;;;;5115207;28;20686;-84
2022/09/05 07:39:18;;;;;;;2.63;2.43;;;21.00;80.20;22.00;97064.00;;;;5109259;28;20316;-84
2022/09/05 07:41:52;;;;;;;2.37;2.17;;;21.10;80.00;22.20;97064.00;;;;5092823;28;20521;-84
2022/09/05 07:44:37;;;;;;;2.73;2.50;;;21.30;80.00;22.30;97072.00;;;;5075187;28;20218;-84
2022/09/05 07:47:13;;;;;;;2.17;2.07;;;21.40;79.80;22.50;97059.00;;;;5078729;28;20195;-84
2022/09/05 07:49:45;;;;;;;2.57;2.37;;;21.50;79.60;22.60;97070.00;;;;5105512;28;20195;-84
2022/09/05 07:52:18;;;;;;;2.37;2.17;;;21.60;79.40;22.70;97071.00;;;;5111961;28;20221;-84
2022/09/05 07:54:50;;;;;;;2.27;2.07;;;21.80;79.20;22.90;97072.00;;;;5114755;28;20290;-85
2022/09/05 07:57:23;;;;;;;2.50;2.30;;;21.90;79.00;23.00;97081.00;;;;5115368;28;20588;-85
2022/09/05 07:59:56;;;;;;;2.37;2.17;;;22.00;79.60;23.10;97075.00;;;;5104703;28;20309;-84
2022/09/05 08:02:23;;;;;;;2.37;2.17;;;22.10;78.50;23.30;97072.00;;;;5100376;28;20226;-86
2022/09/05 08:04:51;;;;;;;2.03;1.93;;;22.20;78.20;23.40;97078.00;;;;5081350;28;20750;-85
2022/09/05 08:07:26;;;;;;;2.30;2.10;;;22.40;78.10;23.50;97078.00;;;;5088252;28;20227;-85
2022/09/05 08:09:59;;;;;;;1.83;1.73;;;22.50;78.00;23.70;97077.00;;;;5082963;28;20277;-86
2022/09/05 08:12:37;;;;;;;2.27;2.07;;;22.60;77.80;23.80;97090.00;;;;5085332;28;20242;-85
2022/09/05 08:15:09;;;;;;;2.07;1.97;;;22.70;77.40;24.00;97085.00;;;;5099067;28;20746;-86
2022/09/05 08:17:53;;;;;;;2.20;2.10;;;22.90;77.10;24.10;97083.00;;;;5110641;28;20221;-86
2022/09/05 08:20:34;;;;;;;1.70;1.60;;;23.00;76.80;24.30;97080.00;;;;5099627;28;20240;-86
2022/09/05 08:23:10;;;;;;;1.80;1.70;;;23.20;76.50;24.40;97079.00;;;;5075276;28;20208;-86
2022/09/05 08:25:46;;;;;;;1.70;1.60;;;23.30;76.30;24.60;97081.00;;;;5074263;28;20188;-85
2022/09/05 08:28:24;;;;;;;3.77;1.90;;;23.40;75.90;24.70;97076.00;;;;5085966;28;20206;-86
2022/09/05 08:31:01;;;;;;;2.13;1.70;;;23.60;75.60;24.80;97078.00;;;;5091783;28;20243;-81
2022/09/05 08:33:34;;;;;;;1.63;1.53;;;23.70;75.20;24.90;97071.00;;;;5121237;28;20213;-81
2022/09/05 08:36:13;;;;;;;1.60;1.50;;;23.80;75.00;25.00;97076.00;;;;5113893;28;20687;-82
2022/09/05 08:38:44;;;;;;;1.83;1.73;;;23.90;74.60;25.20;97074.00;;;;5104313;28;20250;-81
2022/09/05 08:41:23;;;;;;;2.47;1.63;;;24.00;74.80;25.30;97078.00;;;;5083805;28;20534;-82
2022/09/05 08:44:02;;;;;;;1.77;1.67;;;24.20;74.10;25.40;97073.00;;;;5088035;28;20225;-82
2022/09/05 08:46:37;;;;;;;1.50;1.40;;;24.30;74.20;25.50;97072.00;;;;5100707;28;20183;-82
2022/09/05 08:49:44;;;;;;;1.80;1.70;;;24.40;73.90;25.70;97067.00;;;;5085441;28;20211;-81
2022/09/05 08:52:27;;;;;;;2.40;1.27;;;24.60;72.30;25.90;97078.00;;;;5097475;28;20190;-81
2022/09/05 08:55:14;;;;;;;3.03;1.80;;;24.70;73.40;26.10;97068.00;;;;5101022;28;20199;-81
2022/09/05 08:58:04;;;;;;;1.40;1.30;;;24.90;73.30;26.30;97069.00;;;;5094292;28;20200;-84
2022/09/05 09:00:43;;;;;;;1.30;1.20;;;25.10;73.20;26.50;97074.00;;;;5104119;28;20873;-86
2022/09/05 09:03:23;;;;;;;1.50;1.40;;;25.20;73.20;26.70;97066.00;;;;5106413;28;20188;-86
2022/09/05 09:06:22;;;;;;;2.13;1.17;;;25.30;72.60;26.80;97065.00;;;;5092705;28;20253;-85
2022/09/05 09:09:20;;;;;;;1.30;1.30;;;25.50;71.50;27.00;97065.00;;;;5073939;28;20287;-85
2022/09/05 09:11:56;;;;;;;1.17;1.13;;;25.70;71.50;27.20;97062.00;;;;5073231;28;20255;-85
2022/09/05 09:14:51;;;;;;;1.10;1.10;;;25.90;71.40;27.40;97058.00;;;;5078415;28;20210;-86
2022/09/05 09:17:40;;;;;;;1.20;1.00;;;26.00;70.60;27.50;97057.00;;;;5090593;28;20621;-86
2022/09/05 09:20:26;;;;;;;3.10;1.20;;;26.20;70.40;27.70;97055.00;;;;5072802;28;20231;-85
2022/09/05 09:23:02;;;;;;;1.20;1.10;;;26.30;69.90;27.80;97060.00;;;;5072842;28;20238;-85
2022/09/05 09:25:41;;;;;;;1.37;1.10;;;26.50;68.70;28.00;97058.00;;;;5085597;28;20285;-86
2022/09/05 09:29:02;;;;;;;1.07;1.03;;;26.60;68.50;28.10;97059.00;;;;5092544;28;20782;-85
2022/09/05 09:31:56;;;;;;;1.30;1.20;;;26.80;68.10;28.20;97051.00;;;;5107836;28;20207;-85
2022/09/05 09:34:56;;;;;;;1.03;1.00;;;26.90;67.80;28.30;97052.00;;;;5076687;28;20298;-84
2022/09/05 09:38:01;;;;;;;1.20;1.10;;;27.10;67.60;28.40;97051.00;;;;5081731;28;20758;-83
2022/09/05 09:41:13;;;;;;;1.40;1.30;;;27.20;66.90;28.60;97063.00;;;;5077402;28;20250;-82
2022/09/05 09:44:35;;;;;;;2.57;1.07;;;27.30;66.40;28.70;97055.00;;;;5088925;28;20237;-82
2022/09/05 09:47:13;;;;;;;1.33;0.80;;;27.40;66.40;28.80;97048.00;;;;5074910;28;20289;-82
2022/09/05 09:50:11;;;;;;;1.67;1.20;;;27.60;66.70;28.90;97049.00;;;;5094180;28;20196;-82
2022/09/05 09:53:12;;;;;;;1.33;1.00;;;27.70;65.40;29.00;97044.00;;;;5107137;28;20235;-82
2022/09/05 09:56:41;;;;;;;1.60;1.00;;;27.80;65.00;29.10;97046.00;;;;5097140;28;20195;-82
2022/09/05 09:59:36;;;;;;;1.23;0.80;;;27.90;63.60;29.20;97043.00;;;;5100243;28;20255;-82
2022/09/05 10:02:26;;;;;;;0.93;0.93;;;28.00;64.00;29.30;97051.00;;;;5093874;28;20218;-82
2022/09/05 10:05:32;;;;;;;0.80;0.80;;;28.10;63.90;29.40;97050.00;;;;5092650;28;20218;-82
2022/09/05 10:08:31;;;;;;;0.77;0.77;;;28.30;63.90;29.50;97051.00;;;;5093517;28;20703;-82
2022/09/05 10:11:37;;;;;;;1.05;0.93;;;28.30;63.00;29.70;97050.00;;;;5093836;28;20215;-82
2022/09/05 10:14:58;;;;;;;0.90;0.90;;;28.50;62.90;29.80;97042.00;;;;5100485;28;20187;-82
2022/09/05 10:18:03;;;;;;;0.88;0.88;;;28.60;62.60;30.00;97041.00;;;;5083883;28;20231;-82
2022/09/05 10:21:01;;;;;;;0.80;0.80;;;28.80;62.90;30.10;97049.00;;;;5100425;28;20224;-81
2022/09/05 10:23:48;;;;;;;1.10;1.00;;;28.90;63.20;30.30;97042.00;;;;5100567;28;20287;-82
2022/09/05 10:27:13;;;;;;;0.70;0.70;;;29.10;62.60;30.50;97051.00;;;;5106279;28;20225;-82
2022/09/05 10:30:02;;;;;;;0.90;0.80;;;29.30;61.50;30.70;97041.00;;;;5091312;28;20718;-82
2022/09/05 10:32:49;;;;;;;0.73;0.73;;;29.50;62.10;30.80;97048.00;;;;5091137;28;20716;-82
2022/09/05 10:35:24;;;;;;;0.70;0.70;;;29.70;61.10;31.00;97038.00;;;;5085897;28;20282;-82
2022/09/05 10:38:00;;;;;;;0.77;0.77;;;29.80;61.00;31.10;97040.00;;;;5092109;28;20200;-82
2022/09/05 10:40:33;;;;;;;1.00;1.00;;;30.00;60.20;31.20;97040.00;;;;5097035;28;20250;-82
2022/09/05 10:43:13;;;;;;;0.60;0.60;;;30.20;60.50;31.40;97037.00;;;;5099712;28;20194;-82
2022/09/05 10:45:51;;;;;;;0.88;0.80;;;30.30;59.20;31.50;97035.00;;;;5081188;28;20282;-82
2022/09/05 10:48:26;;;;;;;1.33;0.80;;;30.50;58.70;31.50;97039.00;;;;5087424;28;20237;-82
2022/09/05 10:51:00;;;;;;;1.08;1.08;;;30.60;58.00;31.50;97036.00;;;;5075469;28;20728;-82
2022/09/05 10:53:41;;;;;;;0.80;0.80;;;30.70;57.80;31.50;97029.00;;;;5089821;28;20218;-82
2022/09/05 10:56:16;;;;;;;0.60;0.60;;;30.70;56.40;31.50;97031.00;;;;5097007;28;20182;-83
2022/09/05 10:59:03;;;;;;;0.75;0.73;;;30.70;55.50;31.40;97028.00;;;;5099914;28;20250;-82
2022/09/05 11:01:38;;;;;;;2.22;0.80;;;30.70;54.90;31.30;97032.00;;;;5090213;28;20297;-83
2022/09/05 11:04:37;;;;;;;0.73;0.73;;;30.60;54.90;31.10;97016.00;;;;5114073;28;20658;-83
2022/09/05 11:07:14;;;;;;;0.80;0.80;;;30.60;54.60;31.00;97008.00;;;;5104913;28;20199;-84
2022/09/05 11:09:59;;;;;;;0.75;0.75;;;30.50;55.20;31.00;97008.00;;;;5090357;28;20191;-83
2022/09/05 11:13:07;;;;;;;0.73;0.57;;;30.40;54.90;30.90;97012.00;;;;5087993;28;20215;-83
2022/09/05 11:16:01;;;;;;;0.63;0.63;;;30.30;54.00;30.80;97009.00;;;;5083646;28;20679;-83
2022/09/05 11:18:55;;;;;;;0.70;0.70;;;30.20;55.10;30.70;97013.00;;;;5085410;28;20263;-83
2022/09/05 11:21:31;;;;;;;0.60;0.60;;;30.20;54.70;30.60;97006.00;;;;5092577;28;20269;-83
2022/09/05 11:24:09;;;;;;;0.75;0.40;;;30.10;54.30;30.60;97013.00;;;;5099688;28;20705;-84
2022/09/05 11:26:44;;;;;;;0.52;0.52;;;30.00;54.80;30.50;97013.00;;;;5114736;27;20186;-83
2022/09/05 11:29:16;;;;;;;1.70;0.70;;;29.90;54.50;30.50;97004.00;;;;5078105;28;20609;-82
2022/09/05 11:32:19;;;;;;;3.28;1.00;;;29.80;54.90;30.40;97004.00;;;;5109620;28;20224;-82
2022/09/05 11:35:18;;;;;;;0.70;0.70;;;29.80;54.50;30.30;97008.00;;;;5107592;28;20190;-82
2022/09/05 11:38:48;;;;;;;0.70;0.70;;;29.70;53.20;30.30;97000.00;;;;5109697;28;20197;-82
2022/09/05 11:42:00;;;;;;;0.70;0.70;;;29.70;53.90;30.20;96997.00;;;;5098395;28;20599;-82
2022/09/05 11:45:11;;;;;;;0.52;0.52;;;29.60;54.10;30.20;97001.00;;;;5090332;28;20195;-82
2022/09/05 11:48:21;;;;;;;0.85;0.85;;;29.50;54.20;30.10;96991.00;;;;5113665;28;20232;-83
2022/09/05 11:51:55;;;;;;;0.80;0.80;;;29.50;54.40;30.10;96990.00;;;;5078127;28;21019;-83
2022/09/05 11:55:09;;;;;;;1.27;0.63;;;29.40;53.90;30.00;96993.00;;;;5042148;28;21022;-83
2022/09/05 11:57:56;;;;;;;0.70;0.70;;;29.40;54.10;30.00;96989.00;;;;5114175;28;20222;-84
2022/09/05 12:00:31;;;;;;;0.80;0.63;;;29.40;53.80;30.00;96992.00;;;;5085763;28;20255;-82
2022/09/05 12:03:41;;;;;;;0.50;0.50;;;29.30;53.70;30.00;96992.00;;;;5119318;28;20186;-82
2022/09/05 12:06:33;;;;;;;0.60;0.60;;;29.30;52.80;30.00;96989.00;;;;5098836;28;20691;-82
2022/09/05 12:09:16;;;;;;;0.68;0.65;;;29.30;54.00;30.00;96982.00;;;;5078655;28;20192;-82
2022/09/05 12:12:05;;;;;;;0.95;0.75;;;29.30;53.60;30.00;96985.00;;;;5092858;28;20326;-83
2022/09/05 12:14:43;;;;;;;0.68;0.68;;;29.20;53.60;30.00;96983.00;;;;5086874;27;20188;-82
2022/09/05 12:17:30;;;;;;;0.93;0.75;;;29.20;52.90;30.00;96980.00;;;;5098188;28;20221;-82
2022/09/05 12:20:09;;;;;;;0.52;0.52;;;29.20;53.10;30.00;96982.00;;;;5086003;28;20626;-82
2022/09/05 12:22:38;;;;;;;0.60;0.60;;;29.20;53.70;30.00;96978.00;;;;5108820;28;20205;-82
2022/09/05 12:25:27;;;;;;;2.08;0.95;;;29.20;54.20;30.00;96974.00;;;;5091345;28;20302;-82
2022/09/05 12:28:01;;;;;;;0.82;0.60;;;29.20;52.70;30.00;96972.00;;;;5082240;28;20192;-82